sensor_id;sensor_type;location;lat;lon;timestamp;P1;durP1;ratioP1;P2;durP2;ratioP2
7971;SDS011;4031;49.758;6.120;2023-03-31T00:01:29;3.37;;;0.90;;
7971;SDS011;4031;49.758;6.120;2023-03-31T00:03:57;5.17;;;1.47;;
7971;SDS011;4031;49.758;6.120;2023-03-31T00:06:28;3.33;;;1.40;;
7971;SDS011;4031;49.758;6.120;2023-03-31T00:09:02;2.30;;;0.90;;
7971;SDS011;4031;49.758;6.120;2023-03-31T00:11:30;2.70;;;1.07;;
7971;SDS011;4031;49.758;6.120;2023-03-31T00:13:55;5.97;;;1.20;;
7971;SDS011;4031;49.758;6.120;2023-03-31T00:16:21;7.97;;;1.10;;
7971;SDS011;4031;49.758;6.120;2023-03-31T00:18:47;11.83;;;1.23;;
7971;SDS011;4031;49.758;6.120;2023-03-31T00:21:22;3.90;;;1.53;;
7971;SDS011;4031;49.758;6.120;2023-03-31T00:23:55;2.87;;;1.40;;
7971;SDS011;4031;49.758;6.120;2023-03-31T00:26:24;5.23;;;1.30;;
7971;SDS011;4031;49.758;6.120;2023-03-31T00:28:50;3.70;;;1.50;;
7971;SDS011;4031;49.758;6.120;2023-03-31T00:31:17;4.37;;;1.30;;
7971;SDS011;4031;49.758;6.120;2023-03-31T00:33:44;4.93;;;1.70;;
7971;SDS011;4031;49.758;6.120;2023-03-31T00:36:10;1.63;;;1.27;;
7971;SDS011;4031;49.758;6.120;2023-03-31T00:38:36;5.47;;;1.40;;
7971;SDS011;4031;49.758;6.120;2023-03-31T00:41:02;3.23;;;1.50;;
7971;SDS011;4031;49.758;6.120;2023-03-31T00:43:34;2.90;;;1.10;;
7971;SDS011;4031;49.758;6.120;2023-03-31T00:46:14;6.13;;;0.93;;
7971;SDS011;4031;49.758;6.120;2023-03-31T00:48:55;2.83;;;1.30;;
7971;SDS011;4031;49.758;6.120;2023-03-31T00:51:23;1.70;;;1.03;;
7971;SDS011;4031;49.758;6.120;2023-03-31T00:53:55;3.93;;;1.33;;
7971;SDS011;4031;49.758;6.120;2023-03-31T00:56:25;5.60;;;1.60;;
7971;SDS011;4031;49.758;6.120;2023-03-31T00:58:56;4.07;;;1.13;;
7971;SDS011;4031;49.758;6.120;2023-03-31T01:01:28;2.50;;;1.20;;
7971;SDS011;4031;49.758;6.120;2023-03-31T01:03:55;2.10;;;1.20;;
7971;SDS011;4031;49.758;6.120;2023-03-31T01:06:21;8.60;;;1.77;;
7971;SDS011;4031;49.758;6.120;2023-03-31T01:08:50;6.70;;;1.30;;
7971;SDS011;4031;49.758;6.120;2023-03-31T01:11:17;5.50;;;1.60;;
7971;SDS011;4031;49.758;6.120;2023-03-31T01:13:46;4.87;;;1.17;;
7971;SDS011;4031;49.758;6.120;2023-03-31T01:16:15;5.63;;;1.80;;
7971;SDS011;4031;49.758;6.120;2023-03-31T01:18:42;6.30;;;1.80;;
7971;SDS011;4031;49.758;6.120;2023-03-31T01:24:25;5.90;;;1.20;;
7971;SDS011;4031;49.758;6.120;2023-03-31T01:50:33;5.30;;;1.37;;
7971;SDS011;4031;49.758;6.120;2023-03-31T01:56:02;4.50;;;1.73;;
7971;SDS011;4031;49.758;6.120;2023-03-31T02:01:44;6.47;;;2.50;;
7971;SDS011;4031;49.758;6.120;2023-03-31T02:04:26;1.00;;;0.83;;
7971;SDS011;4031;49.758;6.120;2023-03-31T02:07:11;8.23;;;1.30;;
7971;SDS011;4031;49.758;6.120;2023-03-31T02:09:44;3.83;;;1.40;;
7971;SDS011;4031;49.758;6.120;2023-03-31T02:12:15;6.03;;;1.40;;
7971;SDS011;4031;49.758;6.120;2023-03-31T02:14:42;2.60;;;1.70;;
7971;SDS011;4031;49.758;6.120;2023-03-31T02:17:16;4.83;;;1.33;;
7971;SDS011;4031;49.758;6.120;2023-03-31T02:19:46;2.57;;;1.03;;
7971;SDS011;4031;49.758;6.120;2023-03-31T02:22:16;6.07;;;1.67;;
7971;SDS011;4031;49.758;6.120;2023-03-31T02:24:45;2.67;;;0.73;;
7971;SDS011;4031;49.758;6.120;2023-03-31T02:27:27;4.57;;;1.53;;
7971;SDS011;4031;49.758;6.120;2023-03-31T02:29:59;5.97;;;1.70;;
7971;SDS011;4031;49.758;6.120;2023-03-31T02:35:05;7.33;;;1.47;;
7971;SDS011;4031;49.758;6.120;2023-03-31T02:37:35;13.23;;;1.90;;
7971;SDS011;4031;49.758;6.120;2023-03-31T02:40:07;3.90;;;1.30;;
7971;SDS011;4031;49.758;6.120;2023-03-31T02:42:38;2.90;;;1.60;;
7971;SDS011;4031;49.758;6.120;2023-03-31T02:45:32;9.53;;;1.37;;
7971;SDS011;4031;49.758;6.120;2023-03-31T02:48:05;6.63;;;1.50;;
7971;SDS011;4031;49.758;6.120;2023-03-31T02:53:52;3.67;;;1.50;;
7971;SDS011;4031;49.758;6.120;2023-03-31T02:56:34;2.20;;;1.30;;
7971;SDS011;4031;49.758;6.120;2023-03-31T03:06:15;4.50;;;1.57;;
7971;SDS011;4031;49.758;6.120;2023-03-31T03:11:45;2.30;;;1.00;;
7971;SDS011;4031;49.758;6.120;2023-03-31T03:17:27;5.47;;;1.60;;
7971;SDS011;4031;49.758;6.120;2023-03-31T03:19:59;2.83;;;1.47;;
7971;SDS011;4031;49.758;6.120;2023-03-31T03:22:28;2.13;;;1.33;;
7971;SDS011;4031;49.758;6.120;2023-03-31T03:24:53;5.90;;;1.10;;
7971;SDS011;4031;49.758;6.120;2023-03-31T03:27:19;6.53;;;1.37;;
7971;SDS011;4031;49.758;6.120;2023-03-31T03:29:48;3.60;;;1.60;;
7971;SDS011;4031;49.758;6.120;2023-03-31T03:32:13;2.53;;;1.40;;
7971;SDS011;4031;49.758;6.120;2023-03-31T03:34:39;7.53;;;1.70;;
7971;SDS011;4031;49.758;6.120;2023-03-31T03:37:05;4.50;;;1.73;;
7971;SDS011;4031;49.758;6.120;2023-03-31T03:39:31;2.27;;;0.90;;
7971;SDS011;4031;49.758;6.120;2023-03-31T03:41:57;6.63;;;1.67;;
7971;SDS011;4031;49.758;6.120;2023-03-31T03:44:23;2.83;;;0.90;;
7971;SDS011;4031;49.758;6.120;2023-03-31T03:46:48;3.90;;;1.53;;
7971;SDS011;4031;49.758;6.120;2023-03-31T03:49:14;10.80;;;1.73;;
7971;SDS011;4031;49.758;6.120;2023-03-31T03:51:40;2.30;;;1.13;;
7971;SDS011;4031;49.758;6.120;2023-03-31T03:54:06;1.63;;;1.10;;
7971;SDS011;4031;49.758;6.120;2023-03-31T03:56:31;6.03;;;1.33;;
7971;SDS011;4031;49.758;6.120;2023-03-31T03:58:57;4.47;;;1.30;;
7971;SDS011;4031;49.758;6.120;2023-03-31T04:01:23;3.67;;;1.30;;
7971;SDS011;4031;49.758;6.120;2023-03-31T04:03:49;3.20;;;1.33;;
7971;SDS011;4031;49.758;6.120;2023-03-31T04:06:15;4.53;;;1.63;;
7971;SDS011;4031;49.758;6.120;2023-03-31T04:08:40;2.27;;;1.27;;
7971;SDS011;4031;49.758;6.120;2023-03-31T04:11:13;3.17;;;1.33;;
7971;SDS011;4031;49.758;6.120;2023-03-31T04:13:41;4.47;;;1.30;;
7971;SDS011;4031;49.758;6.120;2023-03-31T04:16:09;6.33;;;1.50;;
7971;SDS011;4031;49.758;6.120;2023-03-31T04:18:35;10.80;;;2.00;;
7971;SDS011;4031;49.758;6.120;2023-03-31T04:21:06;5.27;;;2.27;;
7971;SDS011;4031;49.758;6.120;2023-03-31T04:23:39;2.40;;;1.60;;
7971;SDS011;4031;49.758;6.120;2023-03-31T04:26:12;2.57;;;1.70;;
7971;SDS011;4031;49.758;6.120;2023-03-31T04:28:39;1.73;;;1.47;;
7971;SDS011;4031;49.758;6.120;2023-03-31T04:31:10;3.33;;;0.97;;
7971;SDS011;4031;49.758;6.120;2023-03-31T04:33:42;2.00;;;1.20;;
7971;SDS011;4031;49.758;6.120;2023-03-31T04:36:10;2.23;;;1.40;;
7971;SDS011;4031;49.758;6.120;2023-03-31T04:38:41;2.27;;;1.07;;
7971;SDS011;4031;49.758;6.120;2023-03-31T04:41:12;1.67;;;1.40;;
7971;SDS011;4031;49.758;6.120;2023-03-31T04:43:38;4.63;;;1.50;;
7971;SDS011;4031;49.758;6.120;2023-03-31T04:46:04;4.60;;;1.80;;
7971;SDS011;4031;49.758;6.120;2023-03-31T04:48:30;1.57;;;1.10;;
7971;SDS011;4031;49.758;6.120;2023-03-31T04:50:55;3.73;;;1.70;;
7971;SDS011;4031;49.758;6.120;2023-03-31T04:53:21;3.73;;;2.00;;
7971;SDS011;4031;49.758;6.120;2023-03-31T04:55:50;1.93;;;1.57;;
7971;SDS011;4031;49.758;6.120;2023-03-31T04:58:16;4.47;;;2.23;;
7971;SDS011;4031;49.758;6.120;2023-03-31T05:00:41;1.50;;;1.40;;
7971;SDS011;4031;49.758;6.120;2023-03-31T05:03:07;3.80;;;1.70;;
7971;SDS011;4031;49.758;6.120;2023-03-31T05:05:33;5.43;;;1.30;;
7971;SDS011;4031;49.758;6.120;2023-03-31T05:08:00;2.93;;;1.20;;
7971;SDS011;4031;49.758;6.120;2023-03-31T05:10:26;2.83;;;1.47;;
7971;SDS011;4031;49.758;6.120;2023-03-31T05:12:52;1.67;;;1.57;;
7971;SDS011;4031;49.758;6.120;2023-03-31T05:15:18;2.83;;;1.30;;
7971;SDS011;4031;49.758;6.120;2023-03-31T05:17:44;4.60;;;1.13;;
7971;SDS011;4031;49.758;6.120;2023-03-31T05:20:10;3.37;;;1.40;;
7971;SDS011;4031;49.758;6.120;2023-03-31T05:22:38;7.33;;;1.60;;
7971;SDS011;4031;49.758;6.120;2023-03-31T05:25:05;3.30;;;2.00;;
7971;SDS011;4031;49.758;6.120;2023-03-31T05:27:32;3.90;;;2.00;;
7971;SDS011;4031;49.758;6.120;2023-03-31T05:29:59;5.53;;;1.80;;
7971;SDS011;4031;49.758;6.120;2023-03-31T05:32:26;2.20;;;2.00;;
7971;SDS011;4031;49.758;6.120;2023-03-31T05:34:52;4.20;;;2.23;;
7971;SDS011;4031;49.758;6.120;2023-03-31T05:37:21;4.30;;;2.50;;
7971;SDS011;4031;49.758;6.120;2023-03-31T05:39:49;6.20;;;2.40;;
7971;SDS011;4031;49.758;6.120;2023-03-31T05:42:15;4.87;;;2.10;;
7971;SDS011;4031;49.758;6.120;2023-03-31T05:44:41;1.47;;;1.37;;
7971;SDS011;4031;49.758;6.120;2023-03-31T05:47:06;3.30;;;2.07;;
7971;SDS011;4031;49.758;6.120;2023-03-31T05:49:32;2.20;;;1.40;;
7971;SDS011;4031;49.758;6.120;2023-03-31T05:51:58;2.60;;;1.50;;
7971;SDS011;4031;49.758;6.120;2023-03-31T05:54:24;4.60;;;1.70;;
7971;SDS011;4031;49.758;6.120;2023-03-31T05:56:51;2.27;;;1.40;;
7971;SDS011;4031;49.758;6.120;2023-03-31T05:59:17;1.70;;;1.60;;
7971;SDS011;4031;49.758;6.120;2023-03-31T06:01:43;2.67;;;1.80;;
7971;SDS011;4031;49.758;6.120;2023-03-31T06:04:08;2.60;;;1.97;;
7971;SDS011;4031;49.758;6.120;2023-03-31T06:06:34;3.10;;;1.83;;
7971;SDS011;4031;49.758;6.120;2023-03-31T06:09:02;4.07;;;1.73;;
7971;SDS011;4031;49.758;6.120;2023-03-31T06:11:29;3.90;;;1.70;;
7971;SDS011;4031;49.758;6.120;2023-03-31T06:13:55;6.07;;;1.67;;
7971;SDS011;4031;49.758;6.120;2023-03-31T06:16:21;2.97;;;1.77;;
7971;SDS011;4031;49.758;6.120;2023-03-31T06:18:47;4.33;;;1.67;;
7971;SDS011;4031;49.758;6.120;2023-03-31T06:21:15;2.97;;;1.63;;
7971;SDS011;4031;49.758;6.120;2023-03-31T06:23:42;2.70;;;1.23;;
7971;SDS011;4031;49.758;6.120;2023-03-31T06:26:15;1.93;;;1.63;;
7971;SDS011;4031;49.758;6.120;2023-03-31T06:28:43;2.57;;;1.73;;
7971;SDS011;4031;49.758;6.120;2023-03-31T06:31:11;1.97;;;1.40;;
7971;SDS011;4031;49.758;6.120;2023-03-31T06:33:43;3.57;;;1.30;;
7971;SDS011;4031;49.758;6.120;2023-03-31T06:36:09;4.50;;;1.20;;
7971;SDS011;4031;49.758;6.120;2023-03-31T06:38:39;6.37;;;1.97;;
7971;SDS011;4031;49.758;6.120;2023-03-31T06:41:05;3.53;;;1.80;;
7971;SDS011;4031;49.758;6.120;2023-03-31T06:43:34;4.87;;;2.03;;
7971;SDS011;4031;49.758;6.120;2023-03-31T06:46:00;4.13;;;1.83;;
7971;SDS011;4031;49.758;6.120;2023-03-31T06:48:26;9.07;;;2.30;;
7971;SDS011;4031;49.758;6.120;2023-03-31T06:50:52;5.07;;;2.37;;
7971;SDS011;4031;49.758;6.120;2023-03-31T06:53:19;4.43;;;2.00;;
7971;SDS011;4031;49.758;6.120;2023-03-31T06:55:46;2.90;;;1.70;;
7971;SDS011;4031;49.758;6.120;2023-03-31T06:58:12;8.23;;;2.33;;
7971;SDS011;4031;49.758;6.120;2023-03-31T07:00:38;3.83;;;1.97;;
7971;SDS011;4031;49.758;6.120;2023-03-31T07:03:04;5.27;;;3.23;;
7971;SDS011;4031;49.758;6.120;2023-03-31T07:05:32;4.07;;;2.33;;
7971;SDS011;4031;49.758;6.120;2023-03-31T07:07:59;7.40;;;2.27;;
7971;SDS011;4031;49.758;6.120;2023-03-31T07:10:26;9.63;;;3.53;;
7971;SDS011;4031;49.758;6.120;2023-03-31T07:12:54;11.60;;;2.77;;
7971;SDS011;4031;49.758;6.120;2023-03-31T07:15:20;5.53;;;2.20;;
7971;SDS011;4031;49.758;6.120;2023-03-31T07:17:46;6.90;;;2.23;;
7971;SDS011;4031;49.758;6.120;2023-03-31T07:20:15;9.00;;;2.77;;
7971;SDS011;4031;49.758;6.120;2023-03-31T07:22:42;4.50;;;2.90;;
7971;SDS011;4031;49.758;6.120;2023-03-31T07:25:10;7.77;;;2.57;;
7971;SDS011;4031;49.758;6.120;2023-03-31T07:27:38;10.87;;;2.73;;
7971;SDS011;4031;49.758;6.120;2023-03-31T07:30:07;10.63;;;2.17;;
7971;SDS011;4031;49.758;6.120;2023-03-31T07:32:37;10.93;;;2.40;;
7971;SDS011;4031;49.758;6.120;2023-03-31T07:35:05;8.33;;;2.13;;
7971;SDS011;4031;49.758;6.120;2023-03-31T07:37:39;9.40;;;3.73;;
7971;SDS011;4031;49.758;6.120;2023-03-31T07:40:08;6.87;;;2.80;;
7971;SDS011;4031;49.758;6.120;2023-03-31T07:42:41;4.00;;;2.43;;
7971;SDS011;4031;49.758;6.120;2023-03-31T07:45:08;11.37;;;4.30;;
7971;SDS011;4031;49.758;6.120;2023-03-31T07:47:35;10.70;;;2.43;;
7971;SDS011;4031;49.758;6.120;2023-03-31T07:50:01;7.30;;;2.90;;
7971;SDS011;4031;49.758;6.120;2023-03-31T07:52:27;10.80;;;2.40;;
7971;SDS011;4031;49.758;6.120;2023-03-31T07:54:52;7.37;;;2.53;;
7971;SDS011;4031;49.758;6.120;2023-03-31T07:57:18;7.27;;;1.50;;
7971;SDS011;4031;49.758;6.120;2023-03-31T07:59:45;16.03;;;2.90;;
7971;SDS011;4031;49.758;6.120;2023-03-31T08:02:14;2.80;;;1.93;;
7971;SDS011;4031;49.758;6.120;2023-03-31T08:04:42;4.13;;;2.03;;
7971;SDS011;4031;49.758;6.120;2023-03-31T08:07:10;8.33;;;3.37;;
7971;SDS011;4031;49.758;6.120;2023-03-31T08:09:37;5.07;;;2.50;;
7971;SDS011;4031;49.758;6.120;2023-03-31T08:12:04;14.87;;;1.90;;
7971;SDS011;4031;49.758;6.120;2023-03-31T08:14:31;7.33;;;3.13;;
7971;SDS011;4031;49.758;6.120;2023-03-31T08:16:57;5.80;;;2.37;;
7971;SDS011;4031;49.758;6.120;2023-03-31T08:19:24;9.00;;;2.90;;
7971;SDS011;4031;49.758;6.120;2023-03-31T08:21:50;8.40;;;1.83;;
7971;SDS011;4031;49.758;6.120;2023-03-31T08:24:16;5.50;;;2.20;;
7971;SDS011;4031;49.758;6.120;2023-03-31T08:26:42;6.60;;;2.00;;
7971;SDS011;4031;49.758;6.120;2023-03-31T08:29:08;13.03;;;1.90;;
7971;SDS011;4031;49.758;6.120;2023-03-31T08:31:34;14.50;;;3.00;;
7971;SDS011;4031;49.758;6.120;2023-03-31T08:34:00;9.77;;;2.00;;
7971;SDS011;4031;49.758;6.120;2023-03-31T08:36:26;7.93;;;1.80;;
7971;SDS011;4031;49.758;6.120;2023-03-31T08:38:53;8.17;;;2.80;;
7971;SDS011;4031;49.758;6.120;2023-03-31T08:44:15;9.17;;;2.00;;
7971;SDS011;4031;49.758;6.120;2023-03-31T08:47:03;3.23;;;1.27;;
7971;SDS011;4031;49.758;6.120;2023-03-31T08:49:39;5.10;;;2.43;;
7971;SDS011;4031;49.758;6.120;2023-03-31T08:52:13;8.33;;;3.03;;
7971;SDS011;4031;49.758;6.120;2023-03-31T08:54:48;9.93;;;2.50;;
7971;SDS011;4031;49.758;6.120;2023-03-31T08:57:21;6.57;;;2.37;;
7971;SDS011;4031;49.758;6.120;2023-03-31T09:00:08;10.17;;;2.90;;
7971;SDS011;4031;49.758;6.120;2023-03-31T09:02:43;11.00;;;2.07;;
7971;SDS011;4031;49.758;6.120;2023-03-31T09:08:19;9.23;;;2.10;;
7971;SDS011;4031;49.758;6.120;2023-03-31T09:11:13;6.20;;;2.80;;
7971;SDS011;4031;49.758;6.120;2023-03-31T09:14:12;7.97;;;2.43;;
7971;SDS011;4031;49.758;6.120;2023-03-31T09:19:55;9.07;;;3.07;;
7971;SDS011;4031;49.758;6.120;2023-03-31T09:22:32;12.43;;;2.87;;
7971;SDS011;4031;49.758;6.120;2023-03-31T09:27:41;7.87;;;2.07;;
7971;SDS011;4031;49.758;6.120;2023-03-31T09:30:09;13.47;;;2.70;;
7971;SDS011;4031;49.758;6.120;2023-03-31T09:33:13;11.40;;;3.70;;
7971;SDS011;4031;49.758;6.120;2023-03-31T09:35:55;12.10;;;3.73;;
7971;SDS011;4031;49.758;6.120;2023-03-31T09:38:23;5.90;;;1.87;;
7971;SDS011;4031;49.758;6.120;2023-03-31T09:40:53;8.33;;;3.27;;
7971;SDS011;4031;49.758;6.120;2023-03-31T09:43:22;6.07;;;2.10;;
7971;SDS011;4031;49.758;6.120;2023-03-31T09:45:50;11.83;;;3.17;;
7971;SDS011;4031;49.758;6.120;2023-03-31T09:48:18;4.53;;;2.33;;
7971;SDS011;4031;49.758;6.120;2023-03-31T09:50:51;5.17;;;2.03;;
7971;SDS011;4031;49.758;6.120;2023-03-31T09:53:39;7.40;;;2.57;;
7971;SDS011;4031;49.758;6.120;2023-03-31T09:56:13;5.73;;;2.27;;
7971;SDS011;4031;49.758;6.120;2023-03-31T09:59:19;8.23;;;2.10;;
7971;SDS011;4031;49.758;6.120;2023-03-31T10:02:01;8.70;;;2.60;;
7971;SDS011;4031;49.758;6.120;2023-03-31T10:04:43;9.07;;;2.40;;
7971;SDS011;4031;49.758;6.120;2023-03-31T10:07:10;7.00;;;1.90;;
7971;SDS011;4031;49.758;6.120;2023-03-31T10:09:37;9.40;;;2.10;;
7971;SDS011;4031;49.758;6.120;2023-03-31T10:12:05;7.53;;;2.10;;
7971;SDS011;4031;49.758;6.120;2023-03-31T10:14:45;5.07;;;1.70;;
7971;SDS011;4031;49.758;6.120;2023-03-31T10:17:22;8.20;;;2.13;;
7971;SDS011;4031;49.758;6.120;2023-03-31T10:19:53;7.70;;;2.30;;
7971;SDS011;4031;49.758;6.120;2023-03-31T10:22:31;9.67;;;2.63;;
7971;SDS011;4031;49.758;6.120;2023-03-31T10:25:15;8.97;;;2.20;;
7971;SDS011;4031;49.758;6.120;2023-03-31T10:27:50;7.20;;;2.20;;
7971;SDS011;4031;49.758;6.120;2023-03-31T10:30:20;4.60;;;2.40;;
7971;SDS011;4031;49.758;6.120;2023-03-31T10:32:54;7.33;;;2.07;;
7971;SDS011;4031;49.758;6.120;2023-03-31T10:35:33;7.50;;;2.60;;
7971;SDS011;4031;49.758;6.120;2023-03-31T10:38:05;9.17;;;2.57;;
7971;SDS011;4031;49.758;6.120;2023-03-31T10:40:36;9.97;;;2.47;;
7971;SDS011;4031;49.758;6.120;2023-03-31T10:43:08;3.30;;;1.50;;
7971;SDS011;4031;49.758;6.120;2023-03-31T10:45:48;4.30;;;1.30;;
7971;SDS011;4031;49.758;6.120;2023-03-31T10:48:24;6.87;;;1.83;;
7971;SDS011;4031;49.758;6.120;2023-03-31T10:50:57;4.97;;;1.33;;
7971;SDS011;4031;49.758;6.120;2023-03-31T10:53:45;7.00;;;1.80;;
7971;SDS011;4031;49.758;6.120;2023-03-31T10:59:11;6.87;;;1.37;;
7971;SDS011;4031;49.758;6.120;2023-03-31T11:19:34;10.03;;;1.80;;
7971;SDS011;4031;49.758;6.120;2023-03-31T11:22:43;4.67;;;1.40;;
7971;SDS011;4031;49.758;6.120;2023-03-31T11:25:21;2.10;;;1.07;;
7971;SDS011;4031;49.758;6.120;2023-03-31T11:31:05;6.30;;;1.50;;
7971;SDS011;4031;49.758;6.120;2023-03-31T11:33:57;3.90;;;1.67;;
7971;SDS011;4031;49.758;6.120;2023-03-31T11:39:24;6.17;;;1.87;;
7971;SDS011;4031;49.758;6.120;2023-03-31T11:42:08;5.83;;;1.67;;
7971;SDS011;4031;49.758;6.120;2023-03-31T11:44:41;5.87;;;1.20;;
7971;SDS011;4031;49.758;6.120;2023-03-31T11:47:21;3.90;;;1.50;;
7971;SDS011;4031;49.758;6.120;2023-03-31T11:49:54;5.80;;;0.90;;
7971;SDS011;4031;49.758;6.120;2023-03-31T11:52:28;4.20;;;1.30;;
7971;SDS011;4031;49.758;6.120;2023-03-31T11:55:16;6.00;;;1.33;;
7971;SDS011;4031;49.758;6.120;2023-03-31T12:00:27;8.77;;;2.20;;
7971;SDS011;4031;49.758;6.120;2023-03-31T12:03:21;4.73;;;1.60;;
7971;SDS011;4031;49.758;6.120;2023-03-31T12:06:04;4.50;;;1.40;;
7971;SDS011;4031;49.758;6.120;2023-03-31T12:08:42;10.33;;;2.20;;
7971;SDS011;4031;49.758;6.120;2023-03-31T12:16:45;6.80;;;1.40;;
7971;SDS011;4031;49.758;6.120;2023-03-31T12:19:16;2.97;;;1.03;;
7971;SDS011;4031;49.758;6.120;2023-03-31T12:21:54;4.67;;;0.97;;
7971;SDS011;4031;49.758;6.120;2023-03-31T12:24:28;3.80;;;1.17;;
7971;SDS011;4031;49.758;6.120;2023-03-31T12:29:35;4.97;;;1.50;;
7971;SDS011;4031;49.758;6.120;2023-03-31T12:32:21;6.93;;;1.63;;
7971;SDS011;4031;49.758;6.120;2023-03-31T12:35:00;4.37;;;1.13;;
7971;SDS011;4031;49.758;6.120;2023-03-31T12:52:16;3.47;;;1.30;;
7971;SDS011;4031;49.758;6.120;2023-03-31T12:54:58;4.10;;;1.10;;
7971;SDS011;4031;49.758;6.120;2023-03-31T12:57:45;7.03;;;1.37;;
7971;SDS011;4031;49.758;6.120;2023-03-31T13:02:45;3.70;;;1.63;;
7971;SDS011;4031;49.758;6.120;2023-03-31T13:08:02;2.40;;;0.90;;
7971;SDS011;4031;49.758;6.120;2023-03-31T13:10:30;2.03;;;1.33;;
7971;SDS011;4031;49.758;6.120;2023-03-31T13:12:59;5.93;;;1.80;;
7971;SDS011;4031;49.758;6.120;2023-03-31T13:15:27;2.87;;;1.90;;
7971;SDS011;4031;49.758;6.120;2023-03-31T13:18:00;4.43;;;1.20;;
7971;SDS011;4031;49.758;6.120;2023-03-31T13:23:18;2.53;;;1.07;;
7971;SDS011;4031;49.758;6.120;2023-03-31T13:25:49;3.10;;;1.73;;
7971;SDS011;4031;49.758;6.120;2023-03-31T13:30:47;5.87;;;1.13;;
7971;SDS011;4031;49.758;6.120;2023-03-31T13:33:39;3.93;;;1.50;;
7971;SDS011;4031;49.758;6.120;2023-03-31T13:48:35;4.00;;;1.60;;
7971;SDS011;4031;49.758;6.120;2023-03-31T13:56:58;4.93;;;1.40;;
7971;SDS011;4031;49.758;6.120;2023-03-31T14:00:02;4.97;;;2.00;;
7971;SDS011;4031;49.758;6.120;2023-03-31T14:02:48;4.47;;;1.70;;
7971;SDS011;4031;49.758;6.120;2023-03-31T14:05:42;6.03;;;1.20;;
7971;SDS011;4031;49.758;6.120;2023-03-31T14:13:57;2.90;;;0.90;;
7971;SDS011;4031;49.758;6.120;2023-03-31T14:16:43;1.93;;;0.70;;
7971;SDS011;4031;49.758;6.120;2023-03-31T14:25:18;1.47;;;0.67;;
7971;SDS011;4031;49.758;6.120;2023-03-31T14:28:24;2.33;;;1.33;;
7971;SDS011;4031;49.758;6.120;2023-03-31T14:31:21;1.37;;;0.93;;
7971;SDS011;4031;49.758;6.120;2023-03-31T14:37:15;2.30;;;1.10;;
7971;SDS011;4031;49.758;6.120;2023-03-31T14:39:45;3.30;;;1.33;;
7971;SDS011;4031;49.758;6.120;2023-03-31T14:42:20;3.00;;;0.80;;
7971;SDS011;4031;49.758;6.120;2023-03-31T14:44:54;2.60;;;0.90;;
7971;SDS011;4031;49.758;6.120;2023-03-31T14:47:23;3.43;;;0.93;;
7971;SDS011;4031;49.758;6.120;2023-03-31T14:49:59;3.47;;;0.93;;
7971;SDS011;4031;49.758;6.120;2023-03-31T14:52:32;2.60;;;1.03;;
7971;SDS011;4031;49.758;6.120;2023-03-31T14:54:59;3.30;;;1.10;;
7971;SDS011;4031;49.758;6.120;2023-03-31T14:57:33;2.13;;;0.80;;
7971;SDS011;4031;49.758;6.120;2023-03-31T15:00:03;3.60;;;0.93;;
7971;SDS011;4031;49.758;6.120;2023-03-31T15:02:36;1.50;;;1.10;;
7971;SDS011;4031;49.758;6.120;2023-03-31T15:05:07;4.23;;;1.17;;
7971;SDS011;4031;49.758;6.120;2023-03-31T15:07:39;1.30;;;0.63;;
7971;SDS011;4031;49.758;6.120;2023-03-31T15:10:05;3.03;;;1.27;;
7971;SDS011;4031;49.758;6.120;2023-03-31T15:12:32;4.47;;;1.10;;
7971;SDS011;4031;49.758;6.120;2023-03-31T15:15:04;3.13;;;1.10;;
7971;SDS011;4031;49.758;6.120;2023-03-31T15:17:36;5.73;;;1.80;;
7971;SDS011;4031;49.758;6.120;2023-03-31T15:22:52;5.13;;;1.43;;
7971;SDS011;4031;49.758;6.120;2023-03-31T15:25:26;4.97;;;1.10;;
7971;SDS011;4031;49.758;6.120;2023-03-31T15:28:16;2.07;;;1.00;;
7971;SDS011;4031;49.758;6.120;2023-03-31T15:30:42;4.93;;;1.20;;
7971;SDS011;4031;49.758;6.120;2023-03-31T15:33:53;2.60;;;1.00;;
7971;SDS011;4031;49.758;6.120;2023-03-31T15:36:05;7.00;;;1.10;;
7971;SDS011;4031;49.758;6.120;2023-03-31T15:38:35;4.20;;;1.30;;
7971;SDS011;4031;49.758;6.120;2023-03-31T15:41:01;2.30;;;1.27;;
7971;SDS011;4031;49.758;6.120;2023-03-31T15:46:01;3.70;;;0.97;;
7971;SDS011;4031;49.758;6.120;2023-03-31T15:48:34;1.30;;;0.70;;
7971;SDS011;4031;49.758;6.120;2023-03-31T15:51:20;3.17;;;1.37;;
7971;SDS011;4031;49.758;6.120;2023-03-31T15:54:25;7.97;;;1.50;;
7971;SDS011;4031;49.758;6.120;2023-03-31T15:57:04;5.53;;;1.13;;
7971;SDS011;4031;49.758;6.120;2023-03-31T15:59:48;2.30;;;1.20;;
7971;SDS011;4031;49.758;6.120;2023-03-31T16:02:18;1.67;;;1.27;;
7971;SDS011;4031;49.758;6.120;2023-03-31T16:04:48;1.47;;;0.80;;
7971;SDS011;4031;49.758;6.120;2023-03-31T16:07:23;1.77;;;0.70;;
7971;SDS011;4031;49.758;6.120;2023-03-31T16:15:07;4.00;;;0.80;;
7971;SDS011;4031;49.758;6.120;2023-03-31T16:20:16;4.83;;;1.13;;
7971;SDS011;4031;49.758;6.120;2023-03-31T16:22:52;2.30;;;0.97;;
7971;SDS011;4031;49.758;6.120;2023-03-31T16:25:23;3.20;;;1.00;;
7971;SDS011;4031;49.758;6.120;2023-03-31T16:27:58;2.83;;;1.23;;
7971;SDS011;4031;49.758;6.120;2023-03-31T16:30:39;2.10;;;0.60;;
7971;SDS011;4031;49.758;6.120;2023-03-31T16:33:12;4.87;;;1.10;;
7971;SDS011;4031;49.758;6.120;2023-03-31T16:35:42;4.20;;;1.17;;
7971;SDS011;4031;49.758;6.120;2023-03-31T16:38:15;4.23;;;1.30;;
7971;SDS011;4031;49.758;6.120;2023-03-31T16:40:42;6.47;;;2.33;;
7971;SDS011;4031;49.758;6.120;2023-03-31T16:45:44;4.20;;;0.80;;
7971;SDS011;4031;49.758;6.120;2023-03-31T16:48:13;4.03;;;1.10;;
7971;SDS011;4031;49.758;6.120;2023-03-31T16:50:47;2.03;;;0.83;;
7971;SDS011;4031;49.758;6.120;2023-03-31T16:53:16;6.50;;;1.20;;
7971;SDS011;4031;49.758;6.120;2023-03-31T16:55:46;3.40;;;1.20;;
7971;SDS011;4031;49.758;6.120;2023-03-31T16:58:11;5.33;;;1.33;;
7971;SDS011;4031;49.758;6.120;2023-03-31T17:00:37;3.40;;;1.23;;
7971;SDS011;4031;49.758;6.120;2023-03-31T17:03:04;7.53;;;1.50;;
7971;SDS011;4031;49.758;6.120;2023-03-31T17:05:36;1.30;;;1.10;;
7971;SDS011;4031;49.758;6.120;2023-03-31T17:08:07;4.07;;;1.37;;
7971;SDS011;4031;49.758;6.120;2023-03-31T17:10:34;4.00;;;1.50;;
7971;SDS011;4031;49.758;6.120;2023-03-31T17:13:01;2.00;;;1.07;;
7971;SDS011;4031;49.758;6.120;2023-03-31T17:15:27;4.10;;;1.00;;
7971;SDS011;4031;49.758;6.120;2023-03-31T17:17:53;5.10;;;1.17;;
7971;SDS011;4031;49.758;6.120;2023-03-31T17:20:20;9.10;;;2.33;;
7971;SDS011;4031;49.758;6.120;2023-03-31T17:22:46;5.67;;;1.43;;
7971;SDS011;4031;49.758;6.120;2023-03-31T17:25:12;4.00;;;1.67;;
7971;SDS011;4031;49.758;6.120;2023-03-31T17:27:38;3.60;;;1.37;;
7971;SDS011;4031;49.758;6.120;2023-03-31T17:30:04;10.23;;;1.93;;
7971;SDS011;4031;49.758;6.120;2023-03-31T17:32:32;2.63;;;1.00;;
7971;SDS011;4031;49.758;6.120;2023-03-31T17:34:58;3.47;;;1.40;;
7971;SDS011;4031;49.758;6.120;2023-03-31T17:37:24;2.40;;;1.40;;
7971;SDS011;4031;49.758;6.120;2023-03-31T17:39:50;4.40;;;1.40;;
7971;SDS011;4031;49.758;6.120;2023-03-31T17:42:16;4.23;;;0.60;;
7971;SDS011;4031;49.758;6.120;2023-03-31T17:44:43;3.00;;;1.07;;
7971;SDS011;4031;49.758;6.120;2023-03-31T17:47:10;4.37;;;1.13;;
7971;SDS011;4031;49.758;6.120;2023-03-31T17:49:37;4.10;;;1.47;;
7971;SDS011;4031;49.758;6.120;2023-03-31T17:52:03;2.40;;;0.53;;
7971;SDS011;4031;49.758;6.120;2023-03-31T17:54:29;2.00;;;1.23;;
7971;SDS011;4031;49.758;6.120;2023-03-31T17:56:54;1.13;;;0.80;;
7971;SDS011;4031;49.758;6.120;2023-03-31T17:59:20;0.50;;;0.40;;
7971;SDS011;4031;49.758;6.120;2023-03-31T18:01:46;1.57;;;0.87;;
7971;SDS011;4031;49.758;6.120;2023-03-31T18:04:12;1.80;;;0.80;;
7971;SDS011;4031;49.758;6.120;2023-03-31T18:06:38;1.83;;;0.60;;
7971;SDS011;4031;49.758;6.120;2023-03-31T18:09:05;1.17;;;0.97;;
7971;SDS011;4031;49.758;6.120;2023-03-31T18:11:33;6.47;;;0.80;;
7971;SDS011;4031;49.758;6.120;2023-03-31T18:13:59;4.20;;;0.90;;
7971;SDS011;4031;49.758;6.120;2023-03-31T18:16:27;0.80;;;0.60;;
7971;SDS011;4031;49.758;6.120;2023-03-31T18:18:54;0.83;;;0.50;;
7971;SDS011;4031;49.758;6.120;2023-03-31T18:21:20;3.20;;;0.77;;
7971;SDS011;4031;49.758;6.120;2023-03-31T18:23:47;1.60;;;1.03;;
7971;SDS011;4031;49.758;6.120;2023-03-31T18:26:19;2.67;;;0.90;;
7971;SDS011;4031;49.758;6.120;2023-03-31T18:28:50;2.23;;;0.80;;
7971;SDS011;4031;49.758;6.120;2023-03-31T18:31:16;2.30;;;0.83;;
7971;SDS011;4031;49.758;6.120;2023-03-31T18:33:42;1.03;;;0.70;;
7971;SDS011;4031;49.758;6.120;2023-03-31T18:36:12;1.13;;;0.60;;